SWA26 YSSY-NZWN
Flight info
| Callsign | SWA26 |
|---|---|
| Flight time | 2h 53m |
| Altitude | 37000 |
| Route | DCT CAWLY M636 SASRO M636 TANEN DCT SIMZI |
| Aircraft | B736/M-SDE2E3FGHIRWXY/LB1 |
Departure
| Time | 2026-04-21 05:39 |
|---|---|
| Airport | Sydney Kingsford Smith International Airport (YSSY) |
Arrival
| Time | 2026-04-21 08:32 |
|---|---|
| Airport | Wellington International Airport (NZWN) |
| Time | Latitude | Longitude | Altitude | Speed | Heading |
|---|---|---|---|---|---|
| 2026-04-21 05:05 | -33.93999 | 151.16399 | 20 ft | 0 kts | 85° |
| 2026-04-21 05:21 | -33.93999 | 151.16398 | 20 ft | 0 kts | 85° |
| 2026-04-21 05:22 | -33.94001 | 151.16374 | 21 ft | 4 kts | 85° |
| 2026-04-21 05:22 | -33.94003 | 151.16351 | 20 ft | 2 kts | 85° |
| 2026-04-21 05:23 | -33.94004 | 151.16338 | 20 ft | 2 kts | 85° |
| 2026-04-21 05:23 | -33.94005 | 151.16321 | 20 ft | 2 kts | 94° |
| 2026-04-21 05:23 | -33.94004 | 151.16308 | 20 ft | 2 kts | 120° |
| 2026-04-21 05:23 | -33.93996 | 151.16296 | 21 ft | 2 kts | 152° |
| 2026-04-21 05:24 | -33.93987 | 151.16292 | 21 ft | 0 kts | 193° |
| 2026-04-21 05:27 | -33.94056 | 151.16275 | 20 ft | 16 kts | 189° |
| 2026-04-21 05:28 | -33.94161 | 151.16300 | 20 ft | 12 kts | 148° |
| 2026-04-21 05:28 | -33.94170 | 151.16389 | 20 ft | 11 kts | 75° |
| 2026-04-21 05:28 | -33.94148 | 151.16477 | 20 ft | 1 kts | 73° |
| 2026-04-21 05:30 | -33.94102 | 151.16669 | 20 ft | 15 kts | 75° |
| 2026-04-21 05:30 | -33.94082 | 151.16793 | 21 ft | 15 kts | 100° |
| 2026-04-21 05:30 | -33.94136 | 151.16834 | 22 ft | 14 kts | 166° |
| 2026-04-21 05:31 | -33.94365 | 151.16901 | 22 ft | 13 kts | 165° |
| 2026-04-21 05:31 | -33.94404 | 151.16982 | 22 ft | 13 kts | 78° |
| 2026-04-21 05:31 | -33.94384 | 151.17082 | 25 ft | 12 kts | 75° |
| 2026-04-21 05:31 | -33.94361 | 151.17180 | 24 ft | 12 kts | 74° |
| 2026-04-21 05:32 | -33.94351 | 151.17224 | 24 ft | 0 kts | 75° |
| 2026-04-21 05:32 | -33.94345 | 151.17248 | 24 ft | 13 kts | 74° |
| 2026-04-21 05:33 | -33.94307 | 151.17395 | 26 ft | 19 kts | 56° |
| 2026-04-21 05:33 | -33.94262 | 151.17540 | 24 ft | 19 kts | 78° |
| 2026-04-21 05:33 | -33.94231 | 151.17688 | 20 ft | 18 kts | 74° |
| 2026-04-21 05:33 | -33.94205 | 151.17808 | 22 ft | 10 kts | 76° |
| 2026-04-21 05:34 | -33.94241 | 151.17863 | 23 ft | 10 kts | 167° |
| 2026-04-21 05:34 | -33.94307 | 151.17883 | 25 ft | 12 kts | 170° |
| 2026-04-21 05:34 | -33.94377 | 151.17903 | 24 ft | 19 kts | 167° |
| 2026-04-21 05:34 | -33.94514 | 151.17885 | 23 ft | 20 kts | 183° |
| 2026-04-21 05:35 | -33.94649 | 151.17916 | 22 ft | 20 kts | 167° |
| 2026-04-21 05:35 | -33.94782 | 151.17951 | 20 ft | 19 kts | 168° |
| 2026-04-21 05:35 | -33.94912 | 151.17984 | 20 ft | 19 kts | 168° |
| 2026-04-21 05:35 | -33.95037 | 151.18016 | 26 ft | 18 kts | 168° |
| 2026-04-21 05:36 | -33.95100 | 151.18119 | 24 ft | 17 kts | 81° |
| 2026-04-21 05:36 | -33.95076 | 151.18260 | 25 ft | 17 kts | 79° |
| 2026-04-21 05:36 | -33.95051 | 151.18395 | 25 ft | 16 kts | 78° |
| 2026-04-21 05:36 | -33.95027 | 151.18525 | 26 ft | 16 kts | 76° |
| 2026-04-21 05:37 | -33.95006 | 151.18650 | 24 ft | 15 kts | 78° |
| 2026-04-21 05:37 | -33.94995 | 151.18717 | 23 ft | 0 kts | 78° |
| 2026-04-21 05:37 | -33.94994 | 151.18717 | 23 ft | 0 kts | 78° |
| 2026-04-21 05:37 | -33.94987 | 151.18764 | 23 ft | 13 kts | 79° |
| 2026-04-21 05:38 | -33.95034 | 151.18856 | 24 ft | 16 kts | 170° |
| 2026-04-21 05:38 | -33.95197 | 151.18892 | 20 ft | 47 kts | 168° |
| 2026-04-21 05:38 | -33.95723 | 151.19032 | 26 ft | 105 kts | 168° |
| 2026-04-21 05:38 | -33.96584 | 151.19251 | 53 ft | 143 kts | 168° |
| 2026-04-21 05:39 | -33.97579 | 151.19495 | 500 ft | 145 kts | 168° |
| 2026-04-21 05:39 | -33.98526 | 151.19916 | 955 ft | 155 kts | 138° |
| 2026-04-21 05:39 | -33.99096 | 151.21074 | 1389 ft | 165 kts | 124° |
| 2026-04-21 05:39 | -33.99699 | 151.22284 | 1817 ft | 180 kts | 127° |
| 2026-04-21 05:40 | -34.00428 | 151.23646 | 2054 ft | 206 kts | 126° |
| 2026-04-21 05:40 | -34.01264 | 151.25112 | 2448 ft | 216 kts | 136° |
| 2026-04-21 05:40 | -34.02458 | 151.26282 | 2815 ft | 233 kts | 144° |
| 2026-04-21 05:40 | -34.03777 | 151.27520 | 3354 ft | 243 kts | 144° |
| 2026-04-21 05:41 | -34.05113 | 151.28797 | 4148 ft | 245 kts | 144° |
| 2026-04-21 05:41 | -34.06433 | 151.30072 | 4900 ft | 249 kts | 143° |
| 2026-04-21 05:41 | -34.07777 | 151.31378 | 5717 ft | 250 kts | 143° |
| 2026-04-21 05:41 | -34.09138 | 151.32706 | 6512 ft | 252 kts | 143° |
| 2026-04-21 05:42 | -34.10519 | 151.34058 | 7214 ft | 258 kts | 144° |
| 2026-04-21 05:42 | -34.11932 | 151.35442 | 7937 ft | 264 kts | 143° |
| 2026-04-21 05:42 | -34.13336 | 151.36903 | 8679 ft | 271 kts | 134° |
| 2026-04-21 05:42 | -34.14281 | 151.38872 | 9653 ft | 273 kts | 117° |
| 2026-04-21 05:43 | -34.15019 | 151.41035 | 10325 ft | 286 kts | 114° |
| 2026-04-21 05:43 | -34.15774 | 151.43384 | 10532 ft | 313 kts | 114° |
| 2026-04-21 05:43 | -34.16584 | 151.45932 | 10707 ft | 338 kts | 114° |
| 2026-04-21 05:43 | -34.17456 | 151.48671 | 10882 ft | 360 kts | 114° |
| 2026-04-21 05:44 | -34.18383 | 151.51570 | 11085 ft | 379 kts | 113° |
| 2026-04-21 05:44 | -34.19343 | 151.54566 | 11671 ft | 384 kts | 114° |
| 2026-04-21 05:44 | -34.20318 | 151.57600 | 12256 ft | 390 kts | 114° |
| 2026-04-21 05:44 | -34.21306 | 151.60670 | 12876 ft | 394 kts | 114° |
| 2026-04-21 05:45 | -34.22309 | 151.63778 | 13496 ft | 399 kts | 114° |
| 2026-04-21 05:45 | -34.23323 | 151.66919 | 14097 ft | 404 kts | 114° |
| 2026-04-21 05:45 | -34.24348 | 151.70098 | 14688 ft | 407 kts | 114° |
| 2026-04-21 05:45 | -34.25378 | 151.73293 | 15267 ft | 410 kts | 114° |
| 2026-04-21 05:46 | -34.26415 | 151.76515 | 15836 ft | 413 kts | 114° |
| 2026-04-21 05:46 | -34.27449 | 151.79729 | 16394 ft | 417 kts | 114° |
| 2026-04-21 05:46 | -34.28501 | 151.83003 | 16950 ft | 420 kts | 114° |
| 2026-04-21 05:46 | -34.29563 | 151.86312 | 17476 ft | 424 kts | 114° |
| 2026-04-21 05:47 | -34.30635 | 151.89655 | 18005 ft | 427 kts | 114° |
| 2026-04-21 05:47 | -34.31712 | 151.93018 | 18544 ft | 430 kts | 114° |
| 2026-04-21 05:47 | -34.32820 | 151.96393 | 18990 ft | 432 kts | 117° |
| 2026-04-21 05:47 | -34.34180 | 151.99636 | 19445 ft | 433 kts | 122° |
| 2026-04-21 05:48 | -34.35708 | 152.02783 | 19910 ft | 435 kts | 124° |
| 2026-04-21 05:48 | -34.37299 | 152.05904 | 20350 ft | 437 kts | 125° |
| 2026-04-21 05:48 | -34.38907 | 152.09038 | 20820 ft | 439 kts | 125° |
| 2026-04-21 05:48 | -34.40510 | 152.12200 | 21275 ft | 442 kts | 124° |
| 2026-04-21 05:49 | -34.42102 | 152.15390 | 21715 ft | 444 kts | 124° |
| 2026-04-21 05:49 | -34.43691 | 152.18615 | 22140 ft | 446 kts | 124° |
| 2026-04-21 05:49 | -34.45275 | 152.21863 | 22545 ft | 449 kts | 124° |
| 2026-04-21 05:49 | -34.46863 | 152.25137 | 22935 ft | 451 kts | 124° |
| 2026-04-21 05:50 | -34.48452 | 152.28425 | 23304 ft | 453 kts | 124° |
| 2026-04-21 05:50 | -34.50047 | 152.31730 | 23666 ft | 456 kts | 124° |
| 2026-04-21 05:50 | -34.51652 | 152.35060 | 23997 ft | 458 kts | 124° |
| 2026-04-21 05:50 | -34.53261 | 152.38401 | 24287 ft | 460 kts | 124° |
| 2026-04-21 05:51 | -34.54880 | 152.41766 | 24572 ft | 462 kts | 124° |
| 2026-04-21 05:51 | -34.56504 | 152.45142 | 24861 ft | 465 kts | 124° |
| 2026-04-21 05:51 | -34.58115 | 152.48494 | 25146 ft | 467 kts | 124° |
| 2026-04-21 05:51 | -34.59773 | 152.51946 | 25440 ft | 469 kts | 124° |
| 2026-04-21 05:52 | -34.61397 | 152.55333 | 25749 ft | 470 kts | 124° |
| 2026-04-21 05:52 | -34.63065 | 152.58814 | 26025 ft | 472 kts | 124° |
| 2026-04-21 05:52 | -34.64700 | 152.62228 | 26252 ft | 474 kts | 124° |
| 2026-04-21 05:52 | -34.66358 | 152.65695 | 26483 ft | 476 kts | 124° |
| 2026-04-21 05:53 | -34.68021 | 152.69176 | 26752 ft | 476 kts | 124° |
| 2026-04-21 05:53 | -34.69676 | 152.72644 | 27076 ft | 475 kts | 124° |
| 2026-04-21 05:53 | -34.71333 | 152.76120 | 27426 ft | 474 kts | 124° |
| 2026-04-21 05:53 | -34.72982 | 152.79584 | 27773 ft | 473 kts | 124° |
| 2026-04-21 05:54 | -34.74629 | 152.83045 | 28127 ft | 473 kts | 125° |
| 2026-04-21 05:54 | -34.76273 | 152.86504 | 28530 ft | 471 kts | 125° |
| 2026-04-21 05:54 | -34.77909 | 152.89948 | 28949 ft | 470 kts | 125° |
| 2026-04-21 05:54 | -34.79542 | 152.93390 | 29332 ft | 470 kts | 125° |
| 2026-04-21 05:55 | -34.81175 | 152.96834 | 29711 ft | 469 kts | 125° |
| 2026-04-21 05:55 | -34.82805 | 153.00275 | 30127 ft | 468 kts | 125° |
| 2026-04-21 05:55 | -34.84428 | 153.03705 | 30513 ft | 468 kts | 125° |
| 2026-04-21 05:55 | -34.86049 | 153.07134 | 30871 ft | 467 kts | 125° |
| 2026-04-21 05:56 | -34.87665 | 153.10558 | 31244 ft | 465 kts | 125° |
| 2026-04-21 05:56 | -34.89274 | 153.13969 | 31629 ft | 464 kts | 126° |
| 2026-04-21 05:56 | -34.90880 | 153.17378 | 32036 ft | 462 kts | 126° |
| 2026-04-21 05:56 | -34.92475 | 153.20766 | 32403 ft | 461 kts | 126° |
| 2026-04-21 05:57 | -34.94067 | 153.24151 | 32730 ft | 460 kts | 126° |
| 2026-04-21 05:57 | -34.95657 | 153.27533 | 33054 ft | 460 kts | 126° |
| 2026-04-21 05:57 | -34.97244 | 153.30915 | 33388 ft | 459 kts | 126° |
| 2026-04-21 05:57 | -34.98828 | 153.34291 | 33722 ft | 458 kts | 126° |
| 2026-04-21 05:58 | -35.00405 | 153.37658 | 34020 ft | 457 kts | 126° |
| 2026-04-21 05:58 | -35.01980 | 153.41021 | 34316 ft | 457 kts | 126° |
| 2026-04-21 05:58 | -35.03552 | 153.44384 | 34587 ft | 456 kts | 126° |
| 2026-04-21 05:58 | -35.05122 | 153.47745 | 34830 ft | 455 kts | 126° |
| 2026-04-21 05:59 | -35.06692 | 153.51108 | 35041 ft | 456 kts | 126° |
| 2026-04-21 05:59 | -35.08258 | 153.54465 | 35244 ft | 456 kts | 126° |
| 2026-04-21 05:59 | -35.09829 | 153.57837 | 35457 ft | 456 kts | 126° |
| 2026-04-21 06:00 | -35.12960 | 153.64569 | 35883 ft | 455 kts | 126° |
| 2026-04-21 06:00 | -35.14518 | 153.67926 | 36190 ft | 453 kts | 126° |
| 2026-04-21 06:00 | -35.16070 | 153.71274 | 36510 ft | 451 kts | 126° |
| 2026-04-21 06:00 | -35.17608 | 153.74595 | 36839 ft | 449 kts | 126° |
| 2026-04-21 06:01 | -35.19149 | 153.77922 | 37087 ft | 449 kts | 126° |
| 2026-04-21 06:01 | -35.20690 | 153.81251 | 37269 ft | 450 kts | 126° |
| 2026-04-21 06:01 | -35.22216 | 153.84546 | 37278 ft | 454 kts | 126° |
| 2026-04-21 06:02 | -35.25345 | 153.91319 | 37291 ft | 457 kts | 126° |
| 2026-04-21 06:02 | -35.28458 | 153.98085 | 37291 ft | 456 kts | 126° |
| 2026-04-21 06:03 | -35.31565 | 154.04848 | 37286 ft | 455 kts | 126° |
| 2026-04-21 06:03 | -35.34664 | 154.11605 | 37289 ft | 455 kts | 126° |
| 2026-04-21 06:04 | -35.37759 | 154.18363 | 37278 ft | 454 kts | 126° |
| 2026-04-21 06:04 | -35.40827 | 154.25079 | 37281 ft | 454 kts | 126° |
| 2026-04-21 06:05 | -35.43914 | 154.31846 | 37283 ft | 454 kts | 126° |
| 2026-04-21 06:05 | -35.46991 | 154.38607 | 37297 ft | 454 kts | 126° |
| 2026-04-21 06:06 | -35.50069 | 154.45383 | 37284 ft | 454 kts | 126° |
| 2026-04-21 06:06 | -35.53143 | 154.52167 | 37274 ft | 454 kts | 126° |
| 2026-04-21 06:07 | -35.56189 | 154.58900 | 37277 ft | 454 kts | 126° |
| 2026-04-21 06:07 | -35.59255 | 154.65690 | 37278 ft | 454 kts | 126° |
| 2026-04-21 06:08 | -35.62277 | 154.72539 | 37271 ft | 456 kts | 124° |
| 2026-04-21 06:08 | -35.65110 | 154.79532 | 37274 ft | 457 kts | 123° |
| 2026-04-21 06:09 | -35.67910 | 154.86555 | 37278 ft | 457 kts | 123° |
| 2026-04-21 06:09 | -35.70703 | 154.93512 | 37271 ft | 457 kts | 123° |
| 2026-04-21 06:10 | -35.73526 | 155.00508 | 37291 ft | 457 kts | 123° |
| 2026-04-21 06:10 | -35.76357 | 155.07526 | 37272 ft | 457 kts | 123° |
| 2026-04-21 06:11 | -35.79181 | 155.14538 | 37265 ft | 457 kts | 123° |
| 2026-04-21 06:11 | -35.82003 | 155.21564 | 37271 ft | 457 kts | 123° |
| 2026-04-21 06:12 | -35.84815 | 155.28581 | 37267 ft | 456 kts | 123° |
| 2026-04-21 06:12 | -35.87606 | 155.35559 | 37268 ft | 456 kts | 123° |
| 2026-04-21 06:13 | -35.90410 | 155.42585 | 37266 ft | 456 kts | 123° |
| 2026-04-21 06:13 | -35.93211 | 155.49621 | 37263 ft | 456 kts | 123° |
| 2026-04-21 06:14 | -35.96005 | 155.56652 | 37258 ft | 457 kts | 123° |
| 2026-04-21 06:14 | -35.98802 | 155.63708 | 37284 ft | 457 kts | 123° |
| 2026-04-21 06:15 | -36.01597 | 155.70774 | 37268 ft | 457 kts | 123° |
| 2026-04-21 06:15 | -36.04384 | 155.77836 | 37253 ft | 457 kts | 123° |
| 2026-04-21 06:16 | -36.07169 | 155.84907 | 37259 ft | 457 kts | 123° |
| 2026-04-21 06:16 | -36.09946 | 155.91973 | 37248 ft | 457 kts | 123° |
| 2026-04-21 06:17 | -36.12722 | 155.99054 | 37253 ft | 458 kts | 123° |
| 2026-04-21 06:17 | -36.15478 | 156.06096 | 37252 ft | 458 kts | 123° |
| 2026-04-21 06:18 | -36.18247 | 156.13190 | 37253 ft | 457 kts | 122° |
| 2026-04-21 06:18 | -36.21013 | 156.20291 | 37252 ft | 457 kts | 122° |
| 2026-04-21 06:19 | -36.23773 | 156.27394 | 37266 ft | 457 kts | 122° |
| 2026-04-21 06:19 | -36.26528 | 156.34497 | 37250 ft | 457 kts | 122° |
| 2026-04-21 06:20 | -36.28814 | 156.40405 | 37242 ft | 457 kts | 122° |
| 2026-04-21 06:20 | -36.31560 | 156.47515 | 37243 ft | 457 kts | 122° |
| 2026-04-21 06:21 | -36.34300 | 156.54627 | 37241 ft | 457 kts | 122° |
| 2026-04-21 06:21 | -36.37038 | 156.61746 | 37242 ft | 457 kts | 122° |
| 2026-04-21 06:22 | -36.39756 | 156.68832 | 37239 ft | 457 kts | 122° |
| 2026-04-21 06:22 | -36.42485 | 156.75962 | 37240 ft | 457 kts | 122° |
| 2026-04-21 06:23 | -36.45211 | 156.83102 | 37236 ft | 457 kts | 122° |
| 2026-04-21 06:23 | -36.47935 | 156.90250 | 37262 ft | 457 kts | 121° |
| 2026-04-21 06:24 | -36.50633 | 156.97349 | 37383 ft | 454 kts | 121° |
| 2026-04-21 06:24 | -36.51972 | 157.00883 | 37771 ft | 450 kts | 121° |
| 2026-04-21 06:24 | -36.53298 | 157.04387 | 38180 ft | 445 kts | 121° |
| 2026-04-21 06:24 | -36.54607 | 157.07850 | 38616 ft | 440 kts | 122° |
| 2026-04-21 06:25 | -36.55902 | 157.11276 | 39009 ft | 435 kts | 122° |
| 2026-04-21 06:25 | -36.57189 | 157.14683 | 39228 ft | 434 kts | 122° |
| 2026-04-21 06:25 | -36.58483 | 157.18102 | 39212 ft | 439 kts | 121° |
| 2026-04-21 06:26 | -36.61105 | 157.25035 | 39247 ft | 447 kts | 121° |
| 2026-04-21 06:26 | -36.63767 | 157.32107 | 39234 ft | 454 kts | 121° |
| 2026-04-21 06:27 | -36.66455 | 157.39275 | 39232 ft | 459 kts | 121° |
| 2026-04-21 06:27 | -36.69138 | 157.46452 | 39226 ft | 461 kts | 121° |
| 2026-04-21 06:28 | -36.71842 | 157.53700 | 39218 ft | 461 kts | 121° |
| 2026-04-21 06:28 | -36.74545 | 157.60959 | 39222 ft | 461 kts | 120° |
| 2026-04-21 06:29 | -36.77238 | 157.68206 | 39209 ft | 460 kts | 120° |
| 2026-04-21 06:29 | -36.79923 | 157.75449 | 39211 ft | 459 kts | 120° |
| 2026-04-21 06:30 | -36.82600 | 157.82686 | 39209 ft | 458 kts | 120° |
| 2026-04-21 06:30 | -36.85265 | 157.89908 | 39223 ft | 458 kts | 120° |
| 2026-04-21 06:31 | -36.87926 | 157.97133 | 39212 ft | 457 kts | 120° |
| 2026-04-21 06:31 | -36.90581 | 158.04361 | 39203 ft | 457 kts | 120° |
| 2026-04-21 06:32 | -36.93229 | 158.11587 | 39203 ft | 457 kts | 120° |
| 2026-04-21 06:32 | -36.95870 | 158.18810 | 39202 ft | 457 kts | 120° |
| 2026-04-21 06:33 | -36.98509 | 158.26045 | 39210 ft | 457 kts | 120° |
| 2026-04-21 06:33 | -37.01143 | 158.33285 | 39194 ft | 457 kts | 120° |
| 2026-04-21 06:34 | -37.03756 | 158.40484 | 39197 ft | 457 kts | 120° |
| 2026-04-21 06:34 | -37.06383 | 158.47735 | 39205 ft | 457 kts | 120° |
| 2026-04-21 06:35 | -37.09005 | 158.54990 | 39195 ft | 457 kts | 120° |
| 2026-04-21 06:35 | -37.11624 | 158.62255 | 39189 ft | 457 kts | 119° |
| 2026-04-21 06:36 | -37.14239 | 158.69525 | 39188 ft | 457 kts | 119° |
| 2026-04-21 06:36 | -37.16846 | 158.76794 | 39200 ft | 457 kts | 119° |
| 2026-04-21 06:37 | -37.19453 | 158.84078 | 39190 ft | 458 kts | 119° |
| 2026-04-21 06:37 | -37.22053 | 158.91363 | 39190 ft | 458 kts | 119° |
| 2026-04-21 06:38 | -37.24653 | 158.98662 | 39187 ft | 458 kts | 118° |
| 2026-04-21 06:38 | -37.27248 | 159.05966 | 39181 ft | 458 kts | 118° |
| 2026-04-21 06:39 | -37.29842 | 159.13283 | 39172 ft | 458 kts | 118° |
| 2026-04-21 06:39 | -37.32425 | 159.20588 | 39195 ft | 458 kts | 118° |
| 2026-04-21 06:40 | -37.35005 | 159.27903 | 39178 ft | 458 kts | 118° |
| 2026-04-21 06:40 | -37.37564 | 159.35175 | 39173 ft | 458 kts | 118° |
| 2026-04-21 06:41 | -37.40137 | 159.42507 | 39166 ft | 457 kts | 118° |
| 2026-04-21 06:41 | -37.42700 | 159.49825 | 39167 ft | 457 kts | 118° |
| 2026-04-21 06:42 | -37.45258 | 159.57150 | 39171 ft | 457 kts | 118° |
| 2026-04-21 06:42 | -37.47813 | 159.64481 | 39162 ft | 457 kts | 118° |
| 2026-04-21 06:43 | -37.50362 | 159.71817 | 39159 ft | 457 kts | 118° |
| 2026-04-21 06:43 | -37.52903 | 159.79145 | 39165 ft | 457 kts | 117° |
| 2026-04-21 06:44 | -37.55440 | 159.86480 | 39174 ft | 456 kts | 118° |
| 2026-04-21 06:44 | -37.57959 | 159.93779 | 39163 ft | 456 kts | 117° |
| 2026-04-21 06:45 | -37.60485 | 160.01118 | 39153 ft | 456 kts | 117° |
| 2026-04-21 06:45 | -37.63007 | 160.08465 | 39149 ft | 456 kts | 117° |
| 2026-04-21 06:46 | -37.65519 | 160.15802 | 39149 ft | 455 kts | 117° |
| 2026-04-21 06:46 | -37.68028 | 160.23143 | 39154 ft | 455 kts | 117° |
| 2026-04-21 06:47 | -37.70528 | 160.30481 | 39145 ft | 455 kts | 117° |
| 2026-04-21 06:47 | -37.73022 | 160.37819 | 39138 ft | 454 kts | 117° |
| 2026-04-21 06:48 | -37.75513 | 160.45166 | 39143 ft | 454 kts | 117° |
| 2026-04-21 06:48 | -37.77982 | 160.52464 | 39128 ft | 454 kts | 117° |
| 2026-04-21 06:49 | -37.80463 | 160.59817 | 39140 ft | 455 kts | 116° |
| 2026-04-21 06:49 | -37.82937 | 160.67170 | 39128 ft | 454 kts | 117° |
| 2026-04-21 06:50 | -37.85405 | 160.74524 | 39121 ft | 454 kts | 117° |
| 2026-04-21 06:50 | -37.87862 | 160.81870 | 39121 ft | 453 kts | 116° |
| 2026-04-21 06:51 | -37.90322 | 160.89231 | 39134 ft | 453 kts | 116° |
| 2026-04-21 06:51 | -37.92772 | 160.96580 | 39124 ft | 452 kts | 117° |
| 2026-04-21 06:52 | -37.95211 | 161.03919 | 39111 ft | 452 kts | 117° |
| 2026-04-21 06:52 | -37.97643 | 161.11255 | 39110 ft | 451 kts | 116° |
| 2026-04-21 06:53 | -38.00051 | 161.18540 | 39107 ft | 451 kts | 116° |
| 2026-04-21 06:54 | -38.04993 | 161.33539 | 39100 ft | 451 kts | 116° |
| 2026-04-21 06:54 | -38.07391 | 161.40851 | 39101 ft | 451 kts | 116° |
| 2026-04-21 06:55 | -38.09801 | 161.48216 | 39102 ft | 452 kts | 116° |
| 2026-04-21 06:55 | -38.12207 | 161.55588 | 39098 ft | 452 kts | 116° |
| 2026-04-21 06:56 | -38.14608 | 161.62963 | 39101 ft | 452 kts | 116° |
| 2026-04-21 06:56 | -38.16598 | 161.69092 | 39094 ft | 451 kts | 115° |
| 2026-04-21 06:57 | -38.18989 | 161.76469 | 39099 ft | 451 kts | 116° |
| 2026-04-21 06:57 | -38.21762 | 161.85052 | 39092 ft | 451 kts | 116° |
| 2026-04-21 06:58 | -38.23754 | 161.91235 | 39089 ft | 450 kts | 116° |
| 2026-04-21 06:58 | -38.26125 | 161.98607 | 39081 ft | 450 kts | 115° |
| 2026-04-21 06:59 | -38.28493 | 162.05991 | 39089 ft | 451 kts | 116° |
| 2026-04-21 06:59 | -38.30842 | 162.13337 | 39078 ft | 451 kts | 115° |
| 2026-04-21 07:00 | -38.33201 | 162.20731 | 39077 ft | 451 kts | 115° |
| 2026-04-21 07:00 | -38.35556 | 162.28131 | 39090 ft | 451 kts | 115° |
| 2026-04-21 07:01 | -38.37912 | 162.35556 | 39080 ft | 451 kts | 115° |
| 2026-04-21 07:01 | -38.41436 | 162.46699 | 39068 ft | 451 kts | 115° |
| 2026-04-21 07:02 | -38.43775 | 162.54119 | 39065 ft | 451 kts | 115° |
| 2026-04-21 07:02 | -38.46111 | 162.61549 | 39077 ft | 451 kts | 115° |
| 2026-04-21 07:03 | -38.48449 | 162.69003 | 39067 ft | 451 kts | 115° |
| 2026-04-21 07:03 | -38.50777 | 162.76450 | 39068 ft | 451 kts | 115° |
| 2026-04-21 07:04 | -38.53100 | 162.83898 | 39062 ft | 451 kts | 115° |
| 2026-04-21 07:04 | -38.55402 | 162.91297 | 39062 ft | 451 kts | 115° |
| 2026-04-21 07:05 | -38.57714 | 162.98749 | 39066 ft | 451 kts | 115° |
| 2026-04-21 07:05 | -38.59976 | 163.06239 | 39055 ft | 451 kts | 114° |
| 2026-04-21 07:06 | -38.62172 | 163.13760 | 39049 ft | 451 kts | 113° |
| 2026-04-21 07:06 | -38.64360 | 163.21281 | 39054 ft | 451 kts | 113° |
| 2026-04-21 07:07 | -38.66550 | 163.28794 | 39050 ft | 451 kts | 113° |
| 2026-04-21 07:07 | -38.68738 | 163.36306 | 39054 ft | 451 kts | 114° |
| 2026-04-21 07:08 | -38.70926 | 163.43836 | 39051 ft | 451 kts | 114° |
| 2026-04-21 07:08 | -38.73107 | 163.51363 | 39047 ft | 451 kts | 114° |
| 2026-04-21 07:09 | -38.75267 | 163.58836 | 39045 ft | 451 kts | 113° |
| 2026-04-21 07:09 | -38.77437 | 163.66369 | 39060 ft | 451 kts | 113° |
| 2026-04-21 07:10 | -38.79603 | 163.73908 | 39050 ft | 451 kts | 113° |
| 2026-04-21 07:10 | -38.81769 | 163.81468 | 39040 ft | 451 kts | 113° |
| 2026-04-21 07:11 | -38.83927 | 163.89022 | 39039 ft | 451 kts | 113° |
| 2026-04-21 07:11 | -38.86082 | 163.96587 | 39036 ft | 451 kts | 113° |
| 2026-04-21 07:12 | -38.88236 | 164.04170 | 39057 ft | 452 kts | 113° |
| 2026-04-21 07:12 | -38.90382 | 164.11748 | 39042 ft | 452 kts | 113° |
| 2026-04-21 07:13 | -38.92524 | 164.19333 | 39040 ft | 452 kts | 113° |
| 2026-04-21 07:13 | -38.94647 | 164.26873 | 39041 ft | 452 kts | 113° |
| 2026-04-21 07:14 | -38.96781 | 164.34472 | 39040 ft | 452 kts | 113° |
| 2026-04-21 07:14 | -38.98908 | 164.42071 | 39047 ft | 452 kts | 113° |
| 2026-04-21 07:15 | -39.01031 | 164.49677 | 39039 ft | 452 kts | 113° |
| 2026-04-21 07:15 | -39.03147 | 164.57279 | 39041 ft | 451 kts | 112° |
| 2026-04-21 07:16 | -39.05257 | 164.64883 | 39038 ft | 451 kts | 112° |
| 2026-04-21 07:16 | -39.07364 | 164.72496 | 39052 ft | 451 kts | 112° |
| 2026-04-21 07:17 | -39.09453 | 164.80067 | 39041 ft | 452 kts | 112° |
| 2026-04-21 07:17 | -39.11562 | 164.87736 | 39038 ft | 452 kts | 112° |
| 2026-04-21 07:18 | -39.13653 | 164.95359 | 39034 ft | 451 kts | 112° |
| 2026-04-21 07:18 | -39.15727 | 165.02947 | 39039 ft | 451 kts | 112° |
| 2026-04-21 07:19 | -39.17808 | 165.10579 | 39053 ft | 451 kts | 112° |
| 2026-04-21 07:19 | -39.19882 | 165.18211 | 39040 ft | 451 kts | 112° |
| 2026-04-21 07:20 | -39.21953 | 165.25854 | 39040 ft | 450 kts | 112° |
| 2026-04-21 07:20 | -39.24015 | 165.33483 | 39041 ft | 450 kts | 111° |
| 2026-04-21 07:21 | -39.26055 | 165.41057 | 39041 ft | 450 kts | 111° |
| 2026-04-21 07:21 | -39.28103 | 165.48682 | 39041 ft | 450 kts | 111° |
| 2026-04-21 07:22 | -39.30145 | 165.56308 | 39044 ft | 450 kts | 111° |
| 2026-04-21 07:22 | -39.32183 | 165.63941 | 39043 ft | 449 kts | 111° |
| 2026-04-21 07:23 | -39.34217 | 165.71583 | 39043 ft | 450 kts | 111° |
| 2026-04-21 07:23 | -39.36246 | 165.79230 | 39055 ft | 450 kts | 111° |
| 2026-04-21 07:24 | -39.38270 | 165.86883 | 39051 ft | 450 kts | 111° |
| 2026-04-21 07:24 | -39.40294 | 165.94558 | 39042 ft | 450 kts | 111° |
| 2026-04-21 07:25 | -39.42311 | 166.02228 | 39042 ft | 450 kts | 111° |
| 2026-04-21 07:25 | -39.44308 | 166.09848 | 39043 ft | 450 kts | 111° |
| 2026-04-21 07:26 | -39.46315 | 166.17528 | 39052 ft | 451 kts | 111° |
| 2026-04-21 07:26 | -39.48324 | 166.25242 | 39053 ft | 453 kts | 111° |
| 2026-04-21 07:27 | -39.50334 | 166.32980 | 39047 ft | 454 kts | 111° |
| 2026-04-21 07:27 | -39.52342 | 166.40739 | 39046 ft | 454 kts | 111° |
| 2026-04-21 07:28 | -39.54345 | 166.48500 | 39046 ft | 455 kts | 110° |
| 2026-04-21 07:28 | -39.56348 | 166.56284 | 39055 ft | 455 kts | 110° |
| 2026-04-21 07:29 | -39.58346 | 166.64079 | 39052 ft | 455 kts | 110° |
| 2026-04-21 07:29 | -39.60323 | 166.71817 | 39044 ft | 455 kts | 110° |
| 2026-04-21 07:30 | -39.62310 | 166.79611 | 39044 ft | 454 kts | 110° |
| 2026-04-21 07:30 | -39.64284 | 166.87386 | 39054 ft | 453 kts | 110° |
| 2026-04-21 07:31 | -39.66251 | 166.95156 | 39045 ft | 452 kts | 110° |
| 2026-04-21 07:31 | -39.68207 | 167.02906 | 39041 ft | 452 kts | 110° |
| 2026-04-21 07:32 | -39.70145 | 167.10608 | 39041 ft | 451 kts | 110° |
| 2026-04-21 07:32 | -39.72084 | 167.18342 | 39046 ft | 450 kts | 110° |
| 2026-04-21 07:33 | -39.74016 | 167.26072 | 39048 ft | 450 kts | 110° |
| 2026-04-21 07:33 | -39.75943 | 167.33805 | 39041 ft | 450 kts | 110° |
| 2026-04-21 07:34 | -39.77866 | 167.41549 | 39038 ft | 450 kts | 110° |
| 2026-04-21 07:34 | -39.79783 | 167.49292 | 39043 ft | 450 kts | 110° |
| 2026-04-21 07:35 | -39.81693 | 167.57033 | 39038 ft | 449 kts | 110° |
| 2026-04-21 07:35 | -39.83596 | 167.64771 | 39044 ft | 449 kts | 110° |
| 2026-04-21 07:36 | -39.85496 | 167.72523 | 39034 ft | 450 kts | 109° |
| 2026-04-21 07:36 | -39.87391 | 167.80280 | 39041 ft | 449 kts | 110° |
| 2026-04-21 07:37 | -39.89281 | 167.88042 | 39031 ft | 449 kts | 109° |
| 2026-04-21 07:37 | -39.91163 | 167.95795 | 39037 ft | 449 kts | 109° |
| 2026-04-21 07:38 | -39.93045 | 168.03573 | 39031 ft | 450 kts | 109° |
| 2026-04-21 07:38 | -39.94914 | 168.11322 | 39030 ft | 451 kts | 109° |
| 2026-04-21 07:39 | -39.96800 | 168.19170 | 39022 ft | 451 kts | 109° |
| 2026-04-21 07:39 | -39.98663 | 168.26944 | 39031 ft | 451 kts | 109° |
| 2026-04-21 07:40 | -40.00526 | 168.34750 | 39025 ft | 452 kts | 108° |
| 2026-04-21 07:40 | -40.02393 | 168.42594 | 39027 ft | 453 kts | 108° |
| 2026-04-21 07:41 | -40.04255 | 168.50451 | 39035 ft | 454 kts | 108° |
| 2026-04-21 07:41 | -40.06116 | 168.58327 | 39032 ft | 454 kts | 109° |
| 2026-04-21 07:42 | -40.07973 | 168.66210 | 39013 ft | 454 kts | 108° |
| 2026-04-21 07:42 | -40.09513 | 168.72769 | 39021 ft | 455 kts | 108° |
| 2026-04-21 07:43 | -40.11364 | 168.80679 | 39023 ft | 455 kts | 108° |
| 2026-04-21 07:43 | -40.13510 | 168.89886 | 39022 ft | 456 kts | 108° |
| 2026-04-21 07:44 | -40.15053 | 168.96525 | 39024 ft | 456 kts | 108° |
| 2026-04-21 07:44 | -40.16892 | 169.04464 | 39022 ft | 456 kts | 108° |
| 2026-04-21 07:45 | -40.18727 | 169.12414 | 39023 ft | 456 kts | 108° |
| 2026-04-21 07:45 | -40.20542 | 169.20306 | 39017 ft | 456 kts | 108° |
| 2026-04-21 07:46 | -40.22365 | 169.28261 | 39015 ft | 456 kts | 108° |
| 2026-04-21 07:46 | -40.24180 | 169.36209 | 39018 ft | 456 kts | 108° |
| 2026-04-21 07:47 | -40.25992 | 169.44169 | 39025 ft | 456 kts | 108° |
| 2026-04-21 07:47 | -40.27801 | 169.52148 | 39018 ft | 457 kts | 108° |
| 2026-04-21 07:48 | -40.29605 | 169.60132 | 39016 ft | 457 kts | 108° |
| 2026-04-21 07:48 | -40.31405 | 169.68128 | 39017 ft | 457 kts | 108° |
| 2026-04-21 07:49 | -40.33200 | 169.76127 | 39013 ft | 457 kts | 107° |
| 2026-04-21 07:49 | -40.34979 | 169.84088 | 39014 ft | 458 kts | 107° |
| 2026-04-21 07:50 | -40.36766 | 169.92109 | 39015 ft | 459 kts | 107° |
| 2026-04-21 07:50 | -40.38550 | 170.00146 | 39014 ft | 459 kts | 107° |
| 2026-04-21 07:51 | -40.40330 | 170.08197 | 39011 ft | 460 kts | 107° |
| 2026-04-21 07:51 | -40.42108 | 170.16268 | 39010 ft | 460 kts | 107° |
| 2026-04-21 07:52 | -40.43879 | 170.24336 | 39004 ft | 461 kts | 107° |
| 2026-04-21 07:52 | -40.45648 | 170.32429 | 39007 ft | 461 kts | 107° |
| 2026-04-21 07:53 | -40.47416 | 170.40543 | 39005 ft | 462 kts | 107° |
| 2026-04-21 07:53 | -40.49166 | 170.48602 | 39005 ft | 462 kts | 107° |
| 2026-04-21 07:54 | -40.50926 | 170.56728 | 39007 ft | 463 kts | 107° |
| 2026-04-21 07:54 | -40.52913 | 170.64769 | 39008 ft | 463 kts | 109° |
| 2026-04-21 07:55 | -40.55026 | 170.72771 | 39004 ft | 463 kts | 110° |
| 2026-04-21 07:55 | -40.57116 | 170.80789 | 39006 ft | 463 kts | 109° |
| 2026-04-21 07:56 | -40.59171 | 170.88822 | 39007 ft | 463 kts | 109° |
| 2026-04-21 07:56 | -40.61211 | 170.96869 | 39010 ft | 464 kts | 109° |
| 2026-04-21 07:57 | -40.63244 | 171.04928 | 39008 ft | 464 kts | 109° |
| 2026-04-21 07:57 | -40.65275 | 171.12997 | 39008 ft | 464 kts | 109° |
| 2026-04-21 07:58 | -40.67302 | 171.21079 | 39005 ft | 464 kts | 109° |
| 2026-04-21 07:58 | -40.69323 | 171.29162 | 39011 ft | 465 kts | 108° |
| 2026-04-21 07:59 | -40.71337 | 171.37242 | 39002 ft | 464 kts | 108° |
| 2026-04-21 07:59 | -40.73333 | 171.45277 | 39000 ft | 464 kts | 108° |
| 2026-04-21 08:00 | -40.75334 | 171.53365 | 39004 ft | 464 kts | 108° |
| 2026-04-21 08:00 | -40.77329 | 171.61451 | 39004 ft | 464 kts | 108° |
| 2026-04-21 08:01 | -40.79318 | 171.69543 | 39004 ft | 464 kts | 108° |
| 2026-04-21 08:02 | -40.82293 | 171.81698 | 39009 ft | 464 kts | 108° |
| 2026-04-21 08:02 | -40.84268 | 171.89803 | 39008 ft | 464 kts | 108° |
| 2026-04-21 08:03 | -40.86241 | 171.97927 | 39014 ft | 463 kts | 108° |
| 2026-04-21 08:03 | -40.88205 | 172.06042 | 39008 ft | 464 kts | 108° |
| 2026-04-21 08:04 | -40.90164 | 172.14164 | 39022 ft | 464 kts | 108° |
| 2026-04-21 08:04 | -40.92115 | 172.22284 | 38600 ft | 464 kts | 108° |
| 2026-04-21 08:04 | -40.93091 | 172.26354 | 37753 ft | 462 kts | 108° |
| 2026-04-21 08:05 | -40.94041 | 172.30327 | 37031 ft | 457 kts | 108° |
| 2026-04-21 08:05 | -40.94994 | 172.34320 | 36315 ft | 452 kts | 108° |
| 2026-04-21 08:05 | -40.95935 | 172.38267 | 35620 ft | 447 kts | 108° |
| 2026-04-21 08:05 | -40.96862 | 172.42161 | 34969 ft | 441 kts | 108° |
| 2026-04-21 08:06 | -40.97778 | 172.46020 | 34317 ft | 436 kts | 108° |
| 2026-04-21 08:06 | -40.98682 | 172.49832 | 33578 ft | 431 kts | 108° |
| 2026-04-21 08:06 | -40.99574 | 172.53597 | 32816 ft | 427 kts | 108° |
| 2026-04-21 08:06 | -41.00457 | 172.57331 | 32080 ft | 423 kts | 108° |
| 2026-04-21 08:07 | -41.01332 | 172.61034 | 31354 ft | 419 kts | 108° |
| 2026-04-21 08:07 | -41.02204 | 172.64735 | 30771 ft | 427 kts | 108° |
| 2026-04-21 08:07 | -41.03097 | 172.68524 | 30190 ft | 433 kts | 108° |
| 2026-04-21 08:07 | -41.03996 | 172.72348 | 29514 ft | 437 kts | 108° |
| 2026-04-21 08:08 | -41.04904 | 172.76214 | 28820 ft | 441 kts | 108° |
| 2026-04-21 08:08 | -41.05801 | 172.80047 | 28139 ft | 441 kts | 108° |
| 2026-04-21 08:08 | -41.06710 | 172.83939 | 27465 ft | 441 kts | 108° |
| 2026-04-21 08:08 | -41.07617 | 172.87828 | 26819 ft | 441 kts | 108° |
| 2026-04-21 08:09 | -41.08525 | 172.91725 | 26175 ft | 442 kts | 108° |
| 2026-04-21 08:09 | -41.09432 | 172.95629 | 25561 ft | 443 kts | 108° |
| 2026-04-21 08:09 | -41.10340 | 172.99540 | 24944 ft | 444 kts | 108° |
| 2026-04-21 08:09 | -41.11244 | 173.03442 | 24342 ft | 443 kts | 108° |
| 2026-04-21 08:10 | -41.12147 | 173.07348 | 23754 ft | 441 kts | 108° |
| 2026-04-21 08:10 | -41.13044 | 173.11233 | 23090 ft | 436 kts | 108° |
| 2026-04-21 08:10 | -41.13920 | 173.15037 | 22418 ft | 427 kts | 108° |
| 2026-04-21 08:10 | -41.14780 | 173.18777 | 21766 ft | 422 kts | 108° |
| 2026-04-21 08:11 | -41.15632 | 173.22485 | 21116 ft | 418 kts | 108° |
| 2026-04-21 08:11 | -41.16474 | 173.26157 | 20484 ft | 414 kts | 108° |
| 2026-04-21 08:11 | -41.17308 | 173.29798 | 19869 ft | 411 kts | 108° |
| 2026-04-21 08:11 | -41.18135 | 173.33412 | 19265 ft | 408 kts | 108° |
| 2026-04-21 08:12 | -41.18955 | 173.37003 | 18669 ft | 405 kts | 108° |
| 2026-04-21 08:12 | -41.19767 | 173.40569 | 18056 ft | 403 kts | 108° |
| 2026-04-21 08:12 | -41.20566 | 173.44078 | 17383 ft | 400 kts | 108° |
| 2026-04-21 08:12 | -41.21368 | 173.47606 | 16733 ft | 397 kts | 108° |
| 2026-04-21 08:13 | -41.22164 | 173.51117 | 16093 ft | 395 kts | 108° |
| 2026-04-21 08:13 | -41.22952 | 173.54595 | 15453 ft | 393 kts | 108° |
| 2026-04-21 08:13 | -41.23735 | 173.58061 | 14845 ft | 390 kts | 108° |
| 2026-04-21 08:13 | -41.24506 | 173.61482 | 14243 ft | 384 kts | 108° |
| 2026-04-21 08:14 | -41.25267 | 173.64861 | 13629 ft | 380 kts | 108° |
| 2026-04-21 08:14 | -41.26021 | 173.68208 | 12942 ft | 377 kts | 108° |
| 2026-04-21 08:14 | -41.26763 | 173.71531 | 12283 ft | 373 kts | 108° |
| 2026-04-21 08:14 | -41.27501 | 173.74826 | 11651 ft | 371 kts | 108° |
| 2026-04-21 08:15 | -41.28242 | 173.78110 | 11029 ft | 370 kts | 108° |
| 2026-04-21 08:15 | -41.28975 | 173.81378 | 10413 ft | 368 kts | 108° |
| 2026-04-21 08:15 | -41.29698 | 173.84610 | 10167 ft | 362 kts | 108° |
| 2026-04-21 08:15 | -41.30417 | 173.87835 | 10059 ft | 364 kts | 108° |
| 2026-04-21 08:16 | -41.31117 | 173.90995 | 10037 ft | 352 kts | 107° |
| 2026-04-21 08:16 | -41.31488 | 173.94196 | 10045 ft | 349 kts | 95° |
| 2026-04-21 08:16 | -41.31333 | 173.97424 | 10021 ft | 348 kts | 86° |
| 2026-04-21 08:16 | -41.30761 | 174.00497 | 10027 ft | 337 kts | 77° |
| 2026-04-21 08:17 | -41.29988 | 174.03326 | 9996 ft | 315 kts | 78° |
| 2026-04-21 08:17 | -41.29258 | 174.05945 | 10001 ft | 296 kts | 77° |
| 2026-04-21 08:17 | -41.28536 | 174.08445 | 10020 ft | 277 kts | 75° |
| 2026-04-21 08:17 | -41.27868 | 174.10766 | 9878 ft | 267 kts | 77° |
| 2026-04-21 08:18 | -41.27219 | 174.13041 | 9595 ft | 262 kts | 77° |
| 2026-04-21 08:18 | -41.26600 | 174.15327 | 9178 ft | 263 kts | 79° |
| 2026-04-21 08:18 | -41.25976 | 174.17600 | 8780 ft | 263 kts | 78° |
| 2026-04-21 08:18 | -41.25350 | 174.19891 | 8396 ft | 263 kts | 80° |
| 2026-04-21 08:19 | -41.24714 | 174.22159 | 8041 ft | 262 kts | 80° |
| 2026-04-21 08:19 | -41.24084 | 174.24415 | 7741 ft | 259 kts | 80° |
| 2026-04-21 08:19 | -41.23465 | 174.26645 | 7477 ft | 255 kts | 79° |
| 2026-04-21 08:19 | -41.22850 | 174.28860 | 7096 ft | 255 kts | 81° |
| 2026-04-21 08:20 | -41.22239 | 174.31060 | 6825 ft | 252 kts | 81° |
| 2026-04-21 08:20 | -41.21629 | 174.33257 | 6434 ft | 255 kts | 80° |
| 2026-04-21 08:20 | -41.21018 | 174.35460 | 6086 ft | 254 kts | 81° |
| 2026-04-21 08:20 | -41.20408 | 174.37651 | 5764 ft | 253 kts | 81° |
| 2026-04-21 08:21 | -41.19806 | 174.39808 | 5479 ft | 251 kts | 81° |
| 2026-04-21 08:21 | -41.19200 | 174.41976 | 5151 ft | 250 kts | 81° |
| 2026-04-21 08:21 | -41.18597 | 174.44138 | 5043 ft | 251 kts | 81° |
| 2026-04-21 08:21 | -41.17987 | 174.46325 | 5014 ft | 252 kts | 81° |
| 2026-04-21 08:22 | -41.17387 | 174.48450 | 4983 ft | 239 kts | 81° |
| 2026-04-21 08:22 | -41.16820 | 174.50450 | 4976 ft | 225 kts | 82° |
| 2026-04-21 08:22 | -41.16287 | 174.52333 | 4974 ft | 212 kts | 83° |
| 2026-04-21 08:22 | -41.15776 | 174.54167 | 4798 ft | 212 kts | 83° |
| 2026-04-21 08:23 | -41.15262 | 174.56027 | 4472 ft | 215 kts | 83° |
| 2026-04-21 08:23 | -41.14743 | 174.57894 | 4185 ft | 216 kts | 83° |
| 2026-04-21 08:23 | -41.14221 | 174.59756 | 4042 ft | 214 kts | 83° |
| 2026-04-21 08:23 | -41.13700 | 174.61616 | 4007 ft | 216 kts | 83° |
| 2026-04-21 08:24 | -41.13175 | 174.63484 | 3995 ft | 216 kts | 83° |
| 2026-04-21 08:24 | -41.12651 | 174.65345 | 3985 ft | 215 kts | 83° |
| 2026-04-21 08:24 | -41.12227 | 174.67212 | 4002 ft | 206 kts | 91° |
| 2026-04-21 08:24 | -41.11971 | 174.69077 | 3996 ft | 206 kts | 92° |
| 2026-04-21 08:25 | -41.11735 | 174.70952 | 3991 ft | 205 kts | 93° |
| 2026-04-21 08:25 | -41.11533 | 174.72793 | 3812 ft | 201 kts | 95° |
| 2026-04-21 08:25 | -41.11343 | 174.74627 | 3551 ft | 201 kts | 95° |
| 2026-04-21 08:25 | -41.11153 | 174.76456 | 3334 ft | 198 kts | 95° |
| 2026-04-21 08:26 | -41.10960 | 174.78218 | 3270 ft | 189 kts | 95° |
| 2026-04-21 08:26 | -41.10873 | 174.79873 | 3131 ft | 168 kts | 115° |
| 2026-04-21 08:26 | -41.11538 | 174.80916 | 3042 ft | 151 kts | 162° |
| 2026-04-21 08:26 | -41.12567 | 174.81183 | 2991 ft | 149 kts | 159° |
| 2026-04-21 08:27 | -41.13487 | 174.81718 | 2991 ft | 145 kts | 165° |
| 2026-04-21 08:27 | -41.14489 | 174.81819 | 2957 ft | 150 kts | 175° |
| 2026-04-21 08:27 | -41.15554 | 174.81803 | 2986 ft | 157 kts | 176° |
| 2026-04-21 08:27 | -41.16634 | 174.81752 | 3018 ft | 152 kts | 177° |
| 2026-04-21 08:28 | -41.17690 | 174.81689 | 2801 ft | 147 kts | 177° |
| 2026-04-21 08:28 | -41.18692 | 174.81627 | 2655 ft | 144 kts | 176° |
| 2026-04-21 08:28 | -41.19714 | 174.81586 | 2440 ft | 145 kts | 173° |
| 2026-04-21 08:28 | -41.20756 | 174.81553 | 2210 ft | 148 kts | 179° |
| 2026-04-21 08:29 | -41.21725 | 174.81453 | 2033 ft | 130 kts | 178° |
| 2026-04-21 08:29 | -41.22304 | 174.81405 | 1932 ft | 122 kts | 179° |
| 2026-04-21 08:29 | -41.23375 | 174.81325 | 1676 ft | 114 kts | 178° |
| 2026-04-21 08:29 | -41.24147 | 174.81262 | 1827 ft | 116 kts | 178° |
| 2026-04-21 08:30 | -41.25014 | 174.81171 | 1429 ft | 124 kts | 179° |
| 2026-04-21 08:30 | -41.25554 | 174.81147 | 1295 ft | 111 kts | 178° |
| 2026-04-21 08:30 | -41.26270 | 174.81107 | 1157 ft | 99 kts | 177° |
| 2026-04-21 08:30 | -41.27214 | 174.81056 | 994 ft | 104 kts | 177° |
| 2026-04-21 08:31 | -41.27936 | 174.81010 | 850 ft | 111 kts | 180° |
| 2026-04-21 08:31 | -41.28753 | 174.80955 | 726 ft | 121 kts | 180° |
| 2026-04-21 08:31 | -41.29584 | 174.80898 | 561 ft | 116 kts | 180° |
| 2026-04-21 08:31 | -41.30376 | 174.80845 | 402 ft | 114 kts | 181° |
| 2026-04-21 08:32 | -41.30911 | 174.80815 | 266 ft | 114 kts | 181° |
| 2026-04-21 08:32 | -41.31688 | 174.80762 | 95 ft | 107 kts | 182° |
| 2026-04-21 08:32 | -41.32380 | 174.80704 | 28 ft | 91 kts | 182° |
| 2026-04-21 08:32 | -41.32870 | 174.80678 | 19 ft | 40 kts | 182° |
| 2026-04-21 08:33 | -41.32956 | 174.80688 | 18 ft | 0 kts | 124° |